createdAt,value
2023-05-22T00:00:16.967Z,18.86
2023-05-22T00:02:45.016Z,18.82
2023-05-22T00:05:15.744Z,18.71
2023-05-22T00:07:45.142Z,18.88
2023-05-22T00:10:12.934Z,18.93
2023-05-22T00:12:39.888Z,18.87
2023-05-22T00:15:11.879Z,18.77
2023-05-22T00:17:40.182Z,18.72
2023-05-22T00:20:09.300Z,18.67
2023-05-22T00:22:46.189Z,18.71
2023-05-22T00:25:15.594Z,18.79
2023-05-22T00:27:44.676Z,18.67
2023-05-22T00:30:12.438Z,18.84
2023-05-22T00:32:43.649Z,18.79
2023-05-22T00:35:15.980Z,18.87
2023-05-22T00:37:47.041Z,18.74
2023-05-22T00:40:18.438Z,18.70
2023-05-22T00:42:46.393Z,18.71
2023-05-22T00:45:16.435Z,18.81
2023-05-22T00:47:43.875Z,18.90
2023-05-22T00:50:12.170Z,19.02
2023-05-22T00:52:45.817Z,19.05
2023-05-22T00:55:18.363Z,19.06
2023-05-22T00:57:50.624Z,18.91
2023-05-22T01:00:18.120Z,18.86
2023-05-22T01:02:45.404Z,18.74
2023-05-22T01:05:18.528Z,18.80
2023-05-22T01:07:48.925Z,18.66
2023-05-22T01:10:16.054Z,18.82
2023-05-22T01:13:05.283Z,18.82
2023-05-22T01:15:32.201Z,18.59
2023-05-22T01:18:35.348Z,18.65
2023-05-22T01:21:23.772Z,18.67
2023-05-22T01:24:25.951Z,18.88
2023-05-22T01:27:01.696Z,19.06
2023-05-22T01:29:31.527Z,18.89
2023-05-22T01:32:00.882Z,18.90
2023-05-22T01:34:34.360Z,18.99
2023-05-22T01:37:02.278Z,19.04
2023-05-22T01:39:31.235Z,19.04
2023-05-22T01:42:00.959Z,19.14
2023-05-22T01:44:29.059Z,19.11
2023-05-22T01:47:00.838Z,19.04
2023-05-22T01:49:34.921Z,19.04
2023-05-22T01:52:37.515Z,19.11
2023-05-22T01:55:13.728Z,19.14
2023-05-22T01:57:48.538Z,19.14
2023-05-22T02:00:18.765Z,18.94
2023-05-22T02:02:54.247Z,19.05
2023-05-22T02:05:27.566Z,19.07
2023-05-22T02:07:57.141Z,19.18
2023-05-22T02:10:26.301Z,19.36
2023-05-22T02:12:54.166Z,19.24
2023-05-22T02:15:21.632Z,19.19
2023-05-22T02:17:50.190Z,19.09
2023-05-22T02:20:17.438Z,19.13
2023-05-22T02:22:52.264Z,19.08
2023-05-22T02:25:19.475Z,19.09
2023-05-22T02:27:48.230Z,18.96
2023-05-22T02:30:15.910Z,19.00
2023-05-22T02:32:43.234Z,19.04
2023-05-22T02:35:11.636Z,18.99
2023-05-22T02:37:39.035Z,19.07
2023-05-22T02:40:08.208Z,19.00
2023-05-22T02:42:35.185Z,18.90
2023-05-22T02:45:05.718Z,18.97
2023-05-22T02:47:32.788Z,18.92
2023-05-22T02:50:02.803Z,19.00
2023-05-22T02:52:31.280Z,18.94
2023-05-22T02:54:58.238Z,18.90
2023-05-22T02:57:25.172Z,18.88
2023-05-22T02:59:52.940Z,18.89
2023-05-22T03:02:21.011Z,18.81
2023-05-22T03:04:48.025Z,18.98
2023-05-22T03:07:20.581Z,18.93
2023-05-22T03:09:47.961Z,18.88
2023-05-22T03:12:16.567Z,18.75
2023-05-22T03:14:43.616Z,18.71
2023-05-22T03:17:10.685Z,18.62
2023-05-22T03:19:37.768Z,18.73
2023-05-22T03:22:04.776Z,18.67
2023-05-22T03:24:32.671Z,18.63
2023-05-22T03:27:00.734Z,18.74
2023-05-22T03:29:27.845Z,18.77
2023-05-22T03:31:57.329Z,18.59
2023-05-22T03:34:27.747Z,18.69
2023-05-22T03:36:59.095Z,18.63
2023-05-22T03:39:26.239Z,18.65
2023-05-22T03:41:54.383Z,18.60
2023-05-22T03:44:25.449Z,18.57
2023-05-22T03:47:00.454Z,18.56
2023-05-22T03:49:27.634Z,18.57
2023-05-22T03:51:54.693Z,18.63
2023-05-22T03:54:22.992Z,18.60
2023-05-22T03:56:50.502Z,18.51
2023-05-22T03:59:17.576Z,18.45
2023-05-22T04:01:46.858Z,18.43
2023-05-22T04:04:14.548Z,18.52
2023-05-22T04:06:43.549Z,18.51
2023-05-22T04:09:12.329Z,18.52
2023-05-22T04:11:40.229Z,18.52
2023-05-22T04:14:07.506Z,18.48
2023-05-22T04:16:37.761Z,18.40
2023-05-22T04:19:10.326Z,18.42
2023-05-22T04:21:38.787Z,18.42
2023-05-22T04:24:09.739Z,18.37
2023-05-22T04:26:40.982Z,18.44
2023-05-22T04:29:10.827Z,18.45
2023-05-22T04:31:37.782Z,18.36
2023-05-22T04:34:05.712Z,18.37
2023-05-22T04:36:32.745Z,18.47
2023-05-22T04:39:00.699Z,18.47
2023-05-22T04:41:27.752Z,18.42
2023-05-22T04:43:55.203Z,18.37
2023-05-22T04:46:22.832Z,18.52
2023-05-22T04:48:50.033Z,18.62
2023-05-22T04:51:16.995Z,18.57
2023-05-22T04:53:43.942Z,18.61
2023-05-22T04:56:13.108Z,18.65
2023-05-22T04:58:41.745Z,18.55
2023-05-22T05:01:18.998Z,18.57
2023-05-22T05:03:48.012Z,18.59
2023-05-22T05:06:15.839Z,18.58
2023-05-22T05:08:44.613Z,18.62
2023-05-22T05:11:11.824Z,18.71
2023-05-22T05:13:38.877Z,18.73
2023-05-22T05:16:07.682Z,18.74
2023-05-22T05:18:35.767Z,18.71
2023-05-22T05:21:02.875Z,18.80
2023-05-22T05:23:29.863Z,18.74
2023-05-22T05:25:57.260Z,18.77
2023-05-22T05:28:24.275Z,18.73
2023-05-22T05:30:51.707Z,18.79
2023-05-22T05:33:20.064Z,18.76
2023-05-22T05:35:52.974Z,19.01
2023-05-22T05:38:20.397Z,18.95
2023-05-22T05:40:47.542Z,18.95
2023-05-22T05:43:22.109Z,18.94
2023-05-22T05:45:49.268Z,18.90
2023-05-22T05:48:16.838Z,18.91
2023-05-22T05:50:50.626Z,18.91
2023-05-22T05:53:18.785Z,18.96
2023-05-22T05:55:47.366Z,19.02
2023-05-22T05:58:17.680Z,19.08
2023-05-22T06:00:44.923Z,19.13
2023-05-22T06:03:12.236Z,19.17
2023-05-22T06:05:39.505Z,19.12
2023-05-22T06:08:11.952Z,19.25
2023-05-22T06:10:40.467Z,19.18
2023-05-22T06:13:07.768Z,19.28
2023-05-22T06:15:34.808Z,19.22
2023-05-22T06:18:02.981Z,19.38
2023-05-22T06:20:30.454Z,19.49
2023-05-22T06:22:57.451Z,19.48
2023-05-22T06:25:26.441Z,19.45
2023-05-22T06:27:53.538Z,19.53
2023-05-22T06:30:38.411Z,19.58
2023-05-22T06:33:08.291Z,19.61
2023-05-22T06:35:35.362Z,19.69
2023-05-22T06:38:02.618Z,19.68
2023-05-22T06:40:32.471Z,19.69
2023-05-22T06:43:02.708Z,19.75
2023-05-22T06:45:35.464Z,19.81
2023-05-22T06:48:02.786Z,19.92
2023-05-22T06:50:31.681Z,20.02
2023-05-22T06:52:58.811Z,19.91
2023-05-22T06:55:27.381Z,20.05
2023-05-22T06:57:54.362Z,20.03
2023-05-22T07:00:22.050Z,20.13
2023-05-22T07:02:50.423Z,20.06
2023-05-22T07:05:17.858Z,20.05
2023-05-22T07:07:45.088Z,20.11
2023-05-22T07:10:12.187Z,20.12
2023-05-22T07:12:39.833Z,20.15
2023-05-22T07:15:12.098Z,20.12
2023-05-22T07:17:42.022Z,20.18
2023-05-22T07:20:12.301Z,20.15
2023-05-22T07:22:42.125Z,20.13
2023-05-22T07:25:09.507Z,20.26
2023-05-22T07:27:36.804Z,20.30
2023-05-22T07:30:04.660Z,20.38
2023-05-22T07:32:31.600Z,20.40
2023-05-22T07:35:01.723Z,20.38
2023-05-22T07:37:30.375Z,20.34
2023-05-22T07:39:57.562Z,20.46
2023-05-22T07:42:26.597Z,20.52
2023-05-22T07:44:56.568Z,20.59
2023-05-22T07:47:23.593Z,20.57
2023-05-22T07:49:50.666Z,20.61
2023-05-22T07:52:17.732Z,20.72
2023-05-22T07:54:45.529Z,20.75
2023-05-22T07:57:14.309Z,20.92
2023-05-22T07:59:43.914Z,20.91
2023-05-22T08:02:11.922Z,21.00
2023-05-22T08:04:39.627Z,21.05
2023-05-22T08:07:07.052Z,20.93
2023-05-22T08:09:34.433Z,20.89
2023-05-22T08:12:01.570Z,20.68
2023-05-22T08:14:31.917Z,20.78
2023-05-22T08:16:59.940Z,20.76
2023-05-22T08:19:29.491Z,20.84
2023-05-22T08:21:58.515Z,20.95
2023-05-22T08:24:31.084Z,21.00
2023-05-22T08:27:02.134Z,21.15
2023-05-22T08:29:29.312Z,21.35
2023-05-22T08:31:58.508Z,21.37
2023-05-22T08:34:30.227Z,21.30
2023-05-22T08:37:00.385Z,21.40
2023-05-22T08:39:27.364Z,21.55
2023-05-22T08:41:54.680Z,21.37
2023-05-22T08:44:25.144Z,21.34
2023-05-22T08:46:56.926Z,21.74
2023-05-22T08:49:24.649Z,21.44
2023-05-22T08:52:03.609Z,21.74
2023-05-22T08:54:32.561Z,21.72
2023-05-22T08:57:01.445Z,21.63
2023-05-22T08:59:30.050Z,21.62
2023-05-22T09:01:59.697Z,21.81
2023-05-22T09:04:28.747Z,21.57
2023-05-22T09:06:55.842Z,21.89
2023-05-22T09:09:23.654Z,22.19
2023-05-22T09:11:57.643Z,22.32
2023-05-22T09:14:26.149Z,22.32
2023-05-22T09:16:55.203Z,22.09
2023-05-22T09:19:22.334Z,21.99
2023-05-22T09:21:50.798Z,22.14
2023-05-22T09:24:18.100Z,22.32
2023-05-22T09:26:46.905Z,22.10
2023-05-22T09:29:17.451Z,22.15
2023-05-22T09:31:45.282Z,22.23
2023-05-22T09:34:16.000Z,22.24
2023-05-22T09:36:43.681Z,21.83
2023-05-22T09:39:11.398Z,22.00
2023-05-22T09:41:41.740Z,21.88
2023-05-22T09:44:16.500Z,22.48
2023-05-22T09:46:48.108Z,23.01
2023-05-22T09:49:16.814Z,22.78
2023-05-22T09:51:49.901Z,22.49
2023-05-22T09:54:19.132Z,22.76
2023-05-22T09:56:56.850Z,22.99
2023-05-22T09:59:30.570Z,23.23
2023-05-22T10:01:58.670Z,22.97
2023-05-22T10:04:28.445Z,22.89
2023-05-22T10:07:01.260Z,22.64
2023-05-22T10:09:34.436Z,23.13
2023-05-22T10:12:06.334Z,23.62
2023-05-22T10:14:35.893Z,23.63
2023-05-22T10:17:04.964Z,23.45
2023-05-22T10:19:34.230Z,23.52
2023-05-22T10:22:01.862Z,23.74
2023-05-22T10:24:33.191Z,24.22
2023-05-22T10:27:00.413Z,24.40
2023-05-22T10:30:04.128Z,24.74
2023-05-22T10:32:48.968Z,24.83
2023-05-22T10:35:30.233Z,24.87
2023-05-22T10:38:17.065Z,24.83
2023-05-22T10:40:52.815Z,24.76
2023-05-22T10:43:22.037Z,24.65
2023-05-22T10:45:50.802Z,24.07
2023-05-22T10:48:22.395Z,24.09
2023-05-22T10:50:55.288Z,24.70
2023-05-22T10:53:27.344Z,24.62
2023-05-22T10:55:55.136Z,24.75
2023-05-22T10:58:34.802Z,24.84
2023-05-22T11:01:18.777Z,24.95
2023-05-22T11:04:00.865Z,25.11
2023-05-22T11:07:08.290Z,25.45
2023-05-22T11:09:46.215Z,25.07
2023-05-22T11:12:28.982Z,24.73
2023-05-22T11:15:06.780Z,24.70
2023-05-22T11:17:36.663Z,25.21
2023-05-22T11:20:07.837Z,25.63
2023-05-22T11:22:42.885Z,25.96
2023-05-22T11:25:20.549Z,25.77
2023-05-22T11:27:51.086Z,25.98
2023-05-22T11:30:18.092Z,25.29
2023-05-22T11:32:46.797Z,25.14
2023-05-22T11:35:24.101Z,25.03
2023-05-22T11:37:53.797Z,25.12
2023-05-22T11:40:26.880Z,25.71
2023-05-22T11:42:57.848Z,25.94
2023-05-22T11:45:25.717Z,24.45
2023-05-22T11:47:53.264Z,23.91
2023-05-22T11:50:33.542Z,24.16
2023-05-22T11:53:11.210Z,25.12
2023-05-22T11:55:43.198Z,25.09
2023-05-22T11:58:11.229Z,25.51
2023-05-22T12:00:38.578Z,25.58
2023-05-22T12:03:06.871Z,25.72
2023-05-22T12:05:33.907Z,25.00
2023-05-22T12:08:01.466Z,24.97
2023-05-22T12:10:30.064Z,25.10
2023-05-22T12:12:57.057Z,24.82
2023-05-22T12:15:24.926Z,24.69
2023-05-22T12:17:55.807Z,25.74
2023-05-22T12:20:23.402Z,26.29
2023-05-22T12:22:50.518Z,26.44
2023-05-22T12:25:17.966Z,25.37
2023-05-22T12:27:48.295Z,24.40
2023-05-22T12:30:15.872Z,24.15
2023-05-22T12:32:49.800Z,24.18
2023-05-22T12:35:24.422Z,23.90
2023-05-22T12:37:54.049Z,24.10
2023-05-22T12:40:25.341Z,25.46
2023-05-22T12:42:52.854Z,26.14
2023-05-22T12:45:20.076Z,25.99
2023-05-22T12:47:47.305Z,26.39
2023-05-22T12:50:14.544Z,25.29
2023-05-22T12:52:41.492Z,25.06
2023-05-22T12:55:15.627Z,25.19
2023-05-22T12:57:43.780Z,25.69
2023-05-22T13:00:14.056Z,24.72
2023-05-22T13:02:41.610Z,23.82
2023-05-22T13:05:08.872Z,24.66
2023-05-22T13:07:36.140Z,25.93
2023-05-22T13:10:04.719Z,25.67
2023-05-22T13:12:35.234Z,25.26
2023-05-22T13:15:05.556Z,24.68
2023-05-22T13:17:33.006Z,25.08
2023-05-22T13:20:00.278Z,25.20
2023-05-22T13:22:27.211Z,24.94
2023-05-22T13:24:54.285Z,24.49
2023-05-22T13:27:21.281Z,24.08
2023-05-22T13:29:48.154Z,24.07
2023-05-22T13:32:15.452Z,24.84
2023-05-22T13:34:42.632Z,24.62
2023-05-22T13:37:12.861Z,24.55
2023-05-22T13:39:40.062Z,26.17
2023-05-22T13:42:07.855Z,26.55
2023-05-22T13:44:45.171Z,26.48
2023-05-22T13:47:12.538Z,26.05
2023-05-22T13:49:39.773Z,24.67
2023-05-22T13:52:07.876Z,25.00
2023-05-22T13:54:34.881Z,24.84
2023-05-22T13:57:06.735Z,25.12
2023-05-22T13:59:33.698Z,25.50
2023-05-22T14:02:02.693Z,25.49
2023-05-22T14:04:30.119Z,27.03
2023-05-22T14:06:59.993Z,27.63
2023-05-22T14:09:30.777Z,27.01
2023-05-22T14:12:00.471Z,26.69
2023-05-22T14:14:27.413Z,26.27
2023-05-22T14:16:56.853Z,26.04
2023-05-22T14:19:26.597Z,25.25
2023-05-22T14:21:55.200Z,25.90
2023-05-22T14:24:25.483Z,27.09
2023-05-22T14:26:58.276Z,26.22
2023-05-22T14:29:26.154Z,25.68
2023-05-22T14:31:55.699Z,24.94
2023-05-22T14:34:22.598Z,24.55
2023-05-22T14:36:49.609Z,24.56
2023-05-22T14:39:17.214Z,24.65
2023-05-22T14:41:44.512Z,24.70
2023-05-22T14:44:11.592Z,25.18
2023-05-22T14:46:38.639Z,25.56
2023-05-22T14:49:05.621Z,25.74
2023-05-22T14:51:35.795Z,25.27
2023-05-22T14:54:02.931Z,24.76
2023-05-22T14:56:29.938Z,24.67
2023-05-22T14:58:57.734Z,24.55
2023-05-22T15:01:24.822Z,24.89
2023-05-22T15:03:52.505Z,25.32
2023-05-22T15:06:21.214Z,25.83
2023-05-22T15:08:49.322Z,26.64
2023-05-22T15:11:18.404Z,26.26
2023-05-22T15:13:45.366Z,27.00
2023-05-22T15:16:12.336Z,27.01
2023-05-22T15:18:39.878Z,27.59
2023-05-22T15:21:07.042Z,26.96
2023-05-22T15:23:33.969Z,25.94
2023-05-22T15:26:00.974Z,25.40
2023-05-22T15:28:27.965Z,25.35
2023-05-22T15:30:54.931Z,25.05
2023-05-22T15:33:22.217Z,24.77
2023-05-22T15:35:49.097Z,24.38
2023-05-22T15:38:17.580Z,23.93
2023-05-22T15:40:45.012Z,23.79
2023-05-22T15:43:11.983Z,24.12
2023-05-22T15:45:45.603Z,23.96
2023-05-22T15:48:13.385Z,23.62
2023-05-22T15:50:40.291Z,23.53
2023-05-22T15:53:07.304Z,23.82
2023-05-22T15:55:34.434Z,23.98
2023-05-22T15:58:03.140Z,23.79
2023-05-22T16:00:30.159Z,23.86
2023-05-22T16:02:57.170Z,24.19
2023-05-22T16:05:24.197Z,24.25
2023-05-22T16:07:51.044Z,24.70
2023-05-22T16:10:21.935Z,24.91
2023-05-22T16:12:48.913Z,25.43
2023-05-22T16:15:16.173Z,26.48
2023-05-22T16:17:48.067Z,27.06
2023-05-22T16:20:16.605Z,26.66
2023-05-22T16:22:48.795Z,26.33
2023-05-22T16:25:17.249Z,26.28
2023-05-22T16:27:44.596Z,25.79
2023-05-22T16:30:19.614Z,25.67
2023-05-22T16:32:47.194Z,25.49
2023-05-22T16:35:22.350Z,25.46
2023-05-22T16:37:50.543Z,25.56
2023-05-22T16:40:18.837Z,26.10
2023-05-22T16:42:48.120Z,26.98
2023-05-22T16:45:19.376Z,27.23
2023-05-22T16:47:46.871Z,26.48
2023-05-22T16:50:16.702Z,25.45
2023-05-22T16:52:43.754Z,24.83
2023-05-22T16:55:11.362Z,24.86
2023-05-22T16:57:43.026Z,24.76
2023-05-22T17:02:53.108Z,24.55
2023-05-22T17:05:24.588Z,25.17
2023-05-22T17:07:51.783Z,24.89
2023-05-22T17:10:21.999Z,24.70
2023-05-22T17:12:48.969Z,24.58
2023-05-22T17:15:16.000Z,24.38
2023-05-22T17:17:42.996Z,24.93
2023-05-22T17:20:12.078Z,24.84
2023-05-22T17:22:39.267Z,24.50
2023-05-22T17:25:06.662Z,24.31
2023-05-22T17:27:36.499Z,24.13
2023-05-22T17:30:06.517Z,24.01
2023-05-22T17:32:34.896Z,24.06
2023-05-22T17:35:07.119Z,23.98
2023-05-22T17:37:34.502Z,24.09
2023-05-22T17:40:01.422Z,24.18
2023-05-22T17:42:28.452Z,24.24
2023-05-22T17:44:55.490Z,24.13
2023-05-22T17:47:22.709Z,23.97
2023-05-22T17:49:51.417Z,23.57
2023-05-22T17:52:20.255Z,23.34
2023-05-22T17:54:47.716Z,23.21
2023-05-22T17:57:15.876Z,23.11
2023-05-22T17:59:45.820Z,23.20
2023-05-22T18:02:18.497Z,23.26
2023-05-22T18:04:48.787Z,23.19
2023-05-22T18:07:17.497Z,23.13
2023-05-22T18:09:50.928Z,23.07
2023-05-22T18:12:31.057Z,23.03
2023-05-22T18:15:00.511Z,22.91
2023-05-22T18:17:29.433Z,22.86
2023-05-22T18:19:56.507Z,22.79
2023-05-22T18:22:25.246Z,22.65
2023-05-22T18:24:52.529Z,22.55
2023-05-22T18:27:19.572Z,22.50
2023-05-22T18:29:47.286Z,22.85
2023-05-22T18:32:14.634Z,23.29
2023-05-22T18:34:42.205Z,23.49
2023-05-22T18:37:11.709Z,23.59
2023-05-22T18:39:39.151Z,23.44
2023-05-22T18:42:06.507Z,23.67
2023-05-22T18:44:35.440Z,23.95
2023-05-22T18:47:05.201Z,24.09
2023-05-22T18:49:35.308Z,24.10
2023-05-22T18:52:08.520Z,24.01
2023-05-22T18:54:41.354Z,24.13
2023-05-22T18:57:29.093Z,23.96
2023-05-22T19:00:04.181Z,23.56
2023-05-22T19:02:32.148Z,23.33
2023-05-22T19:05:01.184Z,23.31
2023-05-22T19:07:34.997Z,23.54
2023-05-22T19:10:05.494Z,23.79
2023-05-22T19:12:37.168Z,23.99
2023-05-22T19:15:05.452Z,24.11
2023-05-22T19:17:37.767Z,24.15
2023-05-22T19:20:13.140Z,24.17
2023-05-22T19:22:44.771Z,24.10
2023-05-22T19:25:29.239Z,24.12
2023-05-22T19:28:00.530Z,24.00
2023-05-22T19:30:28.108Z,24.01
2023-05-22T19:33:08.553Z,23.87
2023-05-22T19:35:40.646Z,23.91
2023-05-22T19:38:09.366Z,23.92
2023-05-22T19:40:49.823Z,23.92
2023-05-22T19:43:27.537Z,23.92
2023-05-22T19:45:56.855Z,23.84
2023-05-22T19:48:26.002Z,23.81
2023-05-22T19:50:53.511Z,23.83
2023-05-22T19:53:21.689Z,23.80
2023-05-22T19:55:49.567Z,23.70
2023-05-22T19:58:19.784Z,23.65
2023-05-22T20:00:49.884Z,23.64
2023-05-22T20:03:21.430Z,23.65
2023-05-22T20:05:54.149Z,23.62
2023-05-22T20:08:26.193Z,23.57
2023-05-22T20:10:54.820Z,23.43
2023-05-22T20:13:23.302Z,23.33
2023-05-22T20:15:54.838Z,23.29
2023-05-22T20:18:30.330Z,23.22
2023-05-22T20:20:58.058Z,23.27
2023-05-22T20:23:28.405Z,23.17
2023-05-22T20:25:56.617Z,23.18
2023-05-22T20:28:23.978Z,23.17
2023-05-22T20:30:55.121Z,22.97
2023-05-22T20:33:30.399Z,23.09
2023-05-22T20:35:59.811Z,23.08
2023-05-22T20:38:33.974Z,23.09
2023-05-22T20:41:21.177Z,22.92
2023-05-22T20:43:48.396Z,22.89
2023-05-22T20:46:16.896Z,22.82
2023-05-22T20:48:48.437Z,22.75
2023-05-22T20:51:25.778Z,22.71
2023-05-22T20:54:01.638Z,22.85
2023-05-22T20:56:30.366Z,22.90
2023-05-22T20:58:57.420Z,22.66
2023-05-22T21:01:27.960Z,22.57
2023-05-22T21:03:58.381Z,22.64
2023-05-22T21:06:26.720Z,22.49
2023-05-22T21:09:01.845Z,22.56
2023-05-22T21:11:28.989Z,22.40
2023-05-22T21:13:56.114Z,22.49
2023-05-22T21:16:23.249Z,22.61
2023-05-22T21:18:50.445Z,22.71
2023-05-22T21:21:22.140Z,22.53
2023-05-22T21:23:50.117Z,22.35
2023-05-22T21:26:17.453Z,22.33
2023-05-22T21:28:44.852Z,22.33
2023-05-22T21:31:11.831Z,22.33
2023-05-22T21:33:38.864Z,22.17
2023-05-22T21:36:08.656Z,22.09
2023-05-22T21:38:35.856Z,21.98
2023-05-22T21:41:02.800Z,21.94
2023-05-22T21:43:29.726Z,21.97
2023-05-22T21:45:59.695Z,21.90
2023-05-22T21:48:26.787Z,21.83
2023-05-22T21:50:53.680Z,21.82
2023-05-22T21:53:22.556Z,21.80
2023-05-22T21:55:49.540Z,21.71
2023-05-22T21:58:16.626Z,21.72
2023-05-22T22:00:47.076Z,21.81
2023-05-22T22:03:16.905Z,21.72
2023-05-22T22:05:44.872Z,21.61
2023-05-22T22:08:12.710Z,21.64
2023-05-22T22:10:39.964Z,21.50
2023-05-22T22:13:07.217Z,21.41
2023-05-22T22:15:34.295Z,21.37
2023-05-22T22:18:02.639Z,21.36
2023-05-22T22:20:44.421Z,21.29
2023-05-22T22:23:12.208Z,21.20
2023-05-22T22:25:39.638Z,21.18
2023-05-22T22:28:07.628Z,21.19
2023-05-22T22:30:37.912Z,21.16
2023-05-22T22:33:05.956Z,21.01
2023-05-22T22:35:32.978Z,20.97
2023-05-22T22:38:04.841Z,21.13
2023-05-22T22:40:32.814Z,21.02
2023-05-22T22:43:04.330Z,21.02
2023-05-22T22:45:32.666Z,20.94
2023-05-22T22:48:01.282Z,20.95
2023-05-22T22:50:28.546Z,20.88
2023-05-22T22:52:56.038Z,20.85
2023-05-22T22:55:23.244Z,20.74
2023-05-22T22:57:50.692Z,20.74
2023-05-22T23:00:18.532Z,20.78
2023-05-22T23:02:45.817Z,20.83
2023-05-22T23:05:13.723Z,20.78
2023-05-22T23:07:44.747Z,20.86
2023-05-22T23:10:11.862Z,20.73
2023-05-22T23:12:42.197Z,20.73
2023-05-22T23:15:09.897Z,20.64
2023-05-22T23:17:37.553Z,20.63
2023-05-22T23:20:05.845Z,20.58
2023-05-22T23:22:32.916Z,20.54
2023-05-22T23:25:05.494Z,20.52
2023-05-22T23:27:33.460Z,20.36
2023-05-22T23:30:02.051Z,20.30
2023-05-22T23:32:29.048Z,20.34
2023-05-22T23:34:56.877Z,20.31
2023-05-22T23:37:24.105Z,20.34
2023-05-22T23:39:52.712Z,20.32
2023-05-22T23:42:25.018Z,20.35
2023-05-22T23:44:58.060Z,20.34
2023-05-22T23:47:26.693Z,20.34
2023-05-22T23:49:55.588Z,20.38
2023-05-22T23:52:25.065Z,20.45
2023-05-22T23:54:51.948Z,20.62
2023-05-22T23:57:19.049Z,20.62
2023-05-22T23:59:46.094Z,20.51
